Berlin Center, Ohio
Current Conditions -  °F | °C
As of 7:56 PM on Monday 26 Jan 2015 (Local Time) from KPOV Reporting Station
Light Snow Light Snow  
Wind Chill: 11°   Ceiling: 1100
Heat Index: 19°   Visibility: 10mi
Dew Point: 14°   Wind: 6mph
Humidity: 80%   Direction: 360°N
Pressure: 29.87"   Gusts: NA
Location:  41.02°N, 80.95°W
Report Text: KPOV 270056Z AUTO 36005KT 10SM -SN OVC011 M07/M10 A2987 RMK AO2 T10701100
Loading
Personal Weather Stations






























Interactive Weather Map New forecast layout! Learn more

10-Day Weather Forecast

Advertisements
Track Severe Weather on mobile